Time;durP1;ratioP1;P1;durP2;ratioP2;P2;SDS_P1;SDS_P2;PMS_P1;PMS_P2;Temp;Humidity;BMP_temperature;BMP_pressure;BME280_temperature;BME280_humidity;BME280_pressure;Samples;Min_cycle;Max_cycle;Signal;HPM_P1;HPM_P2
2022/07/01 00:00:22;;;;;;;11.35;5.75;;;;;;;22.17;56.72;95435.19;4988913;28;20041;-82
2022/07/01 00:02:48;;;;;;;6.38;5.40;;;;;;;22.06;57.06;95424.13;5005171;28;20025;-82
2022/07/01 00:05:13;;;;;;;6.53;5.25;;;;;;;21.96;57.47;95432.16;5005858;28;20077;-81
2022/07/01 00:07:39;;;;;;;7.72;4.90;;;;;;;21.91;57.38;95430.19;5005691;28;20543;-80
2022/07/01 00:10:05;;;;;;;8.30;5.35;;;;;;;21.82;57.71;95431.69;4987649;28;20504;-81
2022/07/01 00:12:30;;;;;;;6.55;4.80;;;;;;;21.86;57.46;95439.13;5007085;28;20025;-81
2022/07/01 00:14:55;;;;;;;5.85;4.93;;;;;;;21.88;57.70;95432.59;5005051;28;20026;-81
2022/07/01 00:17:21;;;;;;;7.43;4.93;;;;;;;21.91;57.23;95435.63;4989345;28;20037;-81
2022/07/01 00:19:48;;;;;;;8.85;5.13;;;;;;;21.94;56.96;95434.34;5004246;28;20034;-81
2022/07/01 00:22:13;;;;;;;8.48;4.75;;;;;;;21.88;57.08;95447.06;5005117;28;20026;-81
2022/07/01 00:24:39;;;;;;;7.47;4.65;;;;;;;21.92;57.36;95442.78;5005158;28;20104;-81
2022/07/01 00:27:06;;;;;;;10.05;5.10;;;;;;;21.95;56.70;95457.81;5003951;28;20030;-81
2022/07/01 00:29:33;;;;;;;6.82;5.32;;;;;;;21.97;56.75;95450.22;5005571;28;20065;-81
2022/07/01 00:31:58;;;;;;;9.55;5.68;;;;;;;21.94;56.68;95447.97;4987101;28;20546;-81
2022/07/01 00:34:25;;;;;;;5.80;4.90;;;;;;;21.95;57.25;95452.34;5005790;28;20053;-81
2022/07/01 00:36:50;;;;;;;5.93;5.00;;;;;;;21.97;56.89;95458.41;5005448;28;20077;-82
2022/07/01 00:39:16;;;;;;;9.27;5.43;;;;;;;21.95;57.15;95452.34;5037797;28;20084;-81
2022/07/01 00:41:41;;;;;;;6.72;5.40;;;;;;;21.98;56.77;95458.16;5004622;28;20503;-81
2022/07/01 00:44:15;;;;;;;8.48;5.63;;;;;;;21.99;57.01;95456.22;5004133;28;20028;-81
2022/07/01 00:46:41;;;;;;;6.65;5.43;;;;;;;21.96;56.79;95449.38;4990926;28;20408;-81
2022/07/01 00:49:06;;;;;;;9.93;5.13;;;;;;;21.96;56.37;95452.09;4990911;28;20063;-81
2022/07/01 00:51:32;;;;;;;7.35;5.28;;;;;;;21.95;56.80;95457.81;4992708;28;20041;-81
2022/07/01 00:53:58;;;;;;;8.80;5.50;;;;;;;21.89;57.01;95456.09;4990782;28;20022;-81
2022/07/01 00:56:23;;;;;;;13.32;5.50;;;;;;;21.94;56.94;95456.97;5008650;28;20052;-81
2022/07/01 00:58:49;;;;;;;7.95;6.25;;;;;;;21.81;57.31;95451.88;5009418;28;20477;-81
2022/07/01 01:01:14;;;;;;;14.00;5.60;;;;;;;21.73;57.70;95456.63;5008089;28;20480;-81
2022/07/01 01:03:40;;;;;;;9.43;5.60;;;;;;;21.68;58.19;95453.00;5008431;28;20026;-81
2022/07/01 01:06:05;;;;;;;10.40;5.70;;;;;;;21.63;58.47;95452.91;4990827;28;20479;-82
2022/07/01 01:08:31;;;;;;;8.60;5.88;;;;;;;21.68;58.14;95453.00;4976030;28;20030;-82
2022/07/01 01:10:56;;;;;;;7.50;5.72;;;;;;;21.65;58.16;95454.28;5008156;28;20073;-82
2022/07/01 01:13:21;;;;;;;10.52;5.72;;;;;;;21.69;57.99;95460.09;4992166;28;20052;-82
2022/07/01 01:15:47;;;;;;;10.63;6.05;;;;;;;21.59;57.86;95449.84;5008754;28;20457;-82
2022/07/01 01:18:12;;;;;;;8.15;5.85;;;;;;;21.58;57.53;95451.75;4991491;28;20026;-82
2022/07/01 01:20:38;;;;;;;8.45;5.70;;;;;;;21.51;58.44;95442.88;4991454;28;20022;-82
2022/07/01 01:23:04;;;;;;;7.82;5.95;;;;;;;21.49;58.15;95450.47;5007533;28;20040;-82
2022/07/01 01:25:33;;;;;;;7.57;5.60;;;;;;;21.50;58.41;95452.16;5008272;28;20022;-81
2022/07/01 01:27:59;;;;;;;7.63;5.57;;;;;;;21.48;58.72;95454.28;5006825;28;20022;-81
2022/07/01 01:30:24;;;;;;;8.20;5.70;;;;;;;21.44;58.06;95459.41;5008254;28;20033;-81
2022/07/01 01:32:50;;;;;;;10.65;5.68;;;;;;;21.38;58.14;95465.03;5007599;28;20420;-82
2022/07/01 01:35:15;;;;;;;8.55;5.80;;;;;;;21.38;58.30;95465.03;5008325;28;20034;-82
2022/07/01 01:37:41;;;;;;;9.65;5.88;;;;;;;21.33;58.03;95469.31;4990813;28;20116;-82
2022/07/01 01:40:07;;;;;;;8.10;5.63;;;;;;;21.34;57.95;95471.00;5009128;28;20526;-82
2022/07/01 01:42:33;;;;;;;6.88;5.90;;;;;;;21.33;58.12;95465.75;5007672;28;20575;-82
2022/07/01 01:44:58;;;;;;;8.07;5.70;;;;;;;21.30;58.46;95464.34;5008192;28;20026;-81
2022/07/01 01:47:24;;;;;;;8.48;5.68;;;;;;;21.32;58.03;95467.66;5009369;28;20033;-82
2022/07/01 01:49:49;;;;;;;8.52;6.00;;;;;;;21.28;57.84;95466.47;5007917;28;20026;-82
2022/07/01 01:52:14;;;;;;;8.43;5.57;;;;;;;21.23;58.31;95464.50;5008005;28;20037;-82
2022/07/01 01:54:40;;;;;;;6.38;5.72;;;;;;;21.23;58.38;95466.41;5006530;28;20025;-82
2022/07/01 01:57:05;;;;;;;6.80;5.80;;;;;;;21.23;57.72;95467.22;5008018;28;20018;-83
2022/07/01 01:59:31;;;;;;;7.57;5.60;;;;;;;21.16;57.97;95469.28;5008037;28;20544;-82
2022/07/01 02:01:56;;;;;;;9.80;6.50;;;;;;;21.17;58.31;95468.19;5007434;28;20030;-82
2022/07/01 02:04:23;;;;;;;7.50;6.07;;;;;;;21.16;58.70;95463.00;5007446;28;20026;-82
2022/07/01 02:06:49;;;;;;;10.73;5.95;;;;;;;21.09;58.55;95463.97;5007465;28;20400;-82
2022/07/01 02:09:15;;;;;;;13.40;5.53;;;;;;;21.10;58.07;95472.97;5024006;28;20030;-82
2022/07/01 02:11:40;;;;;;;9.93;5.85;;;;;;;21.08;58.28;95467.78;5005711;28;20164;-82
2022/07/01 02:14:06;;;;;;;8.32;6.15;;;;;;;21.05;58.05;95471.00;5008826;28;20026;-82
2022/07/01 02:16:31;;;;;;;9.30;5.80;;;;;;;21.00;59.05;95476.34;5006211;28;20030;-82
2022/07/01 02:18:57;;;;;;;7.10;6.10;;;;;;;20.93;59.69;95486.53;5007173;28;20030;-83
2022/07/01 02:21:22;;;;;;;10.75;6.30;;;;;;;20.97;59.24;95476.81;5007937;28;20075;-82
2022/07/01 02:23:48;;;;;;;12.60;6.32;;;;;;;20.98;58.86;95487.47;4973804;28;20119;-82
2022/07/01 02:26:13;;;;;;;9.60;5.78;;;;;;;20.96;58.73;95484.16;5008501;28;20022;-82
2022/07/01 02:28:39;;;;;;;8.88;5.80;;;;;;;20.95;58.97;95489.84;5005685;28;20026;-81
2022/07/01 02:31:04;;;;;;;9.32;5.85;;;;;;;20.91;58.81;95500.38;5007679;28;20105;-82
2022/07/01 02:33:30;;;;;;;9.70;5.85;;;;;;;20.92;58.88;95487.63;5005209;28;20050;-82
2022/07/01 02:35:55;;;;;;;11.68;6.03;;;;;;;20.89;58.22;95488.91;5007360;28;20555;-82
2022/07/01 02:38:20;;;;;;;7.20;5.38;;;;;;;20.88;58.77;95489.97;5006003;28;20025;-82
2022/07/01 02:40:46;;;;;;;6.75;5.80;;;;;;;20.82;59.53;95505.38;4990196;28;20033;-81
2022/07/01 02:43:12;;;;;;;6.65;5.78;;;;;;;20.85;58.64;95494.00;5007003;28;20041;-82
2022/07/01 02:45:38;;;;;;;8.02;5.55;;;;;;;20.81;58.49;95506.44;5005527;28;20057;-81
2022/07/01 02:48:04;;;;;;;10.20;6.28;;;;;;;20.83;58.75;95503.50;5006896;28;20025;-82
2022/07/01 02:50:30;;;;;;;7.65;5.32;;;;;;;20.78;59.08;95501.47;5006733;28;20120;-82
2022/07/01 02:52:55;;;;;;;9.35;5.78;;;;;;;20.79;59.06;95502.31;4974453;28;20492;-81
2022/07/01 02:55:20;;;;;;;8.57;5.70;;;;;;;20.79;58.90;95503.16;5007082;28;20038;-83
2022/07/01 02:57:49;;;;;;;12.25;5.80;;;;;;;20.82;58.74;95507.28;4989856;28;20025;-82
2022/07/01 03:00:15;;;;;;;7.60;5.50;;;;;;;20.77;58.42;95513.44;5005733;28;20029;-82
2022/07/01 03:02:40;;;;;;;8.73;5.72;;;;;;;20.75;58.50;95512.84;4989103;28;20029;-82
2022/07/01 03:05:06;;;;;;;9.73;5.78;;;;;;;20.72;58.31;95518.78;4990128;28;20523;-82
2022/07/01 03:07:32;;;;;;;6.72;5.40;;;;;;;20.68;58.40;95512.16;4989102;28;20476;-81
2022/07/01 03:09:57;;;;;;;10.48;5.50;;;;;;;20.65;58.41;95518.91;4989223;28;20029;-81
2022/07/01 03:12:27;;;;;;;10.80;5.38;;;;;;;20.65;58.04;95518.91;4988298;28;20099;-83
2022/07/01 03:14:57;;;;;;;9.82;5.15;;;;;;;20.62;58.44;95522.94;5006244;28;20091;-81
2022/07/01 03:17:27;;;;;;;6.70;6.00;;;;;;;20.55;58.57;95514.09;5005477;28;20026;-82
2022/07/01 03:19:52;;;;;;;9.82;5.90;;;;;;;20.56;59.30;95521.19;5006042;28;20164;-80
2022/07/01 03:22:19;;;;;;;11.35;6.53;;;;;;;20.52;59.31;95524.63;5022412;28;20467;-81
2022/07/01 03:24:44;;;;;;;8.07;6.13;;;;;;;20.52;59.31;95525.47;5004837;28;20167;-81
2022/07/01 03:27:10;;;;;;;10.45;5.95;;;;;;;20.54;58.89;95531.47;5006604;28;20030;-80
2022/07/01 03:29:36;;;;;;;9.93;5.78;;;;;;;20.51;58.92;95534.69;5007919;28;20029;-81
2022/07/01 03:32:01;;;;;;;9.02;5.90;;;;;;;20.50;59.04;95528.44;4989602;28;20069;-81
2022/07/01 03:34:27;;;;;;;8.80;6.50;;;;;;;20.48;58.94;95537.88;5006312;28;20022;-81
2022/07/01 03:36:52;;;;;;;9.32;5.70;;;;;;;20.47;59.10;95528.06;5006934;28;20088;-82
2022/07/01 03:39:18;;;;;;;8.23;5.80;;;;;;;20.53;59.25;95527.13;5006660;28;20480;-82
2022/07/01 03:41:44;;;;;;;7.82;5.82;;;;;;;20.55;59.11;95525.00;4988673;28;20025;-81
2022/07/01 03:44:09;;;;;;;12.00;6.25;;;;;;;20.58;59.15;95523.66;5007638;28;20297;-81
2022/07/01 03:46:35;;;;;;;8.40;5.82;;;;;;;20.63;58.82;95529.25;5004644;28;20069;-82
2022/07/01 03:49:01;;;;;;;9.88;5.72;;;;;;;20.61;59.09;95534.94;5009062;28;20072;-82
2022/07/01 03:51:27;;;;;;;8.57;5.97;;;;;;;20.72;58.68;95540.59;4987899;28;20092;-82
2022/07/01 03:56:36;;;;;;;7.90;5.28;;;;;;;20.83;57.93;95534.28;5006437;28;20033;-83
2022/07/01 03:59:01;;;;;;;6.85;5.43;;;;;;;20.88;58.05;95533.56;4988560;28;20030;-83
2022/07/01 04:01:27;;;;;;;8.63;5.65;;;;;;;20.96;57.67;95541.41;5006985;28;20022;-82
2022/07/01 04:03:52;;;;;;;11.10;5.82;;;;;;;21.02;58.53;95544.25;5004268;28;20037;-82
2022/07/01 04:06:18;;;;;;;7.82;5.97;;;;;;;21.06;58.71;95540.78;5006106;28;20543;-82
2022/07/01 04:08:43;;;;;;;7.63;5.80;;;;;;;21.09;58.42;95543.03;5020214;28;20616;-81
2022/07/01 04:11:09;;;;;;;9.80;6.60;;;;;;;21.17;58.92;95551.91;5005784;28;20037;-83
2022/07/01 04:13:37;;;;;;;8.18;5.97;;;;;;;21.27;58.83;95543.09;4988246;28;20026;-82
2022/07/01 04:16:02;;;;;;;9.85;6.75;;;;;;;21.31;59.01;95553.28;4989160;28;20045;-83
2022/07/01 04:18:28;;;;;;;7.15;6.10;;;;;;;21.38;59.99;95553.13;5005336;28;20413;-83
2022/07/01 04:23:38;;;;;;;6.97;5.95;;;;;;;21.54;59.55;95551.53;5009966;28;20041;-83
2022/07/01 04:26:03;;;;;;;7.00;5.88;;;;;;;21.64;59.47;95550.06;5009102;28;20026;-82
2022/07/01 04:28:28;;;;;;;11.57;6.13;;;;;;;21.73;59.79;95554.06;5009667;28;20034;-83
2022/07/01 04:30:54;;;;;;;7.80;6.93;;;;;;;21.83;59.47;95547.97;5008159;28;20496;-83
2022/07/01 04:33:19;;;;;;;8.52;6.65;;;;;;;21.85;59.63;95560.31;5009858;28;20046;-82
2022/07/01 04:35:45;;;;;;;9.45;6.55;;;;;;;21.93;59.34;95552.78;5008832;28;20482;-83
2022/07/01 04:38:10;;;;;;;8.80;6.70;;;;;;;22.03;59.10;95558.44;5008055;28;20420;-82
2022/07/01 04:40:36;;;;;;;9.23;6.57;;;;;;;22.13;58.78;95555.06;5009223;28;20025;-83
2022/07/01 04:43:01;;;;;;;10.68;6.47;;;;;;;22.24;57.63;95556.03;5007623;28;20030;-82
2022/07/01 04:45:26;;;;;;;10.77;6.60;;;;;;;22.33;57.48;95553.69;5010851;28;20381;-84
2022/07/01 04:47:52;;;;;;;8.18;6.20;;;;;;;22.38;58.10;95558.41;5007658;28;20029;-84
2022/07/01 04:50:17;;;;;;;8.25;6.38;;;;;;;22.49;57.88;95560.22;5010172;28;20037;-82
2022/07/01 04:52:43;;;;;;;9.23;6.13;;;;;;;22.59;56.57;95559.56;5008068;28;20046;-83
2022/07/01 04:55:08;;;;;;;10.63;6.18;;;;;;;22.69;56.44;95553.44;5009686;28;20022;-85
2022/07/01 04:57:34;;;;;;;9.35;6.50;;;;;;;22.79;55.72;95564.53;5009970;28;20119;-83
2022/07/01 04:59:59;;;;;;;15.45;6.80;;;;;;;22.92;55.83;95559.78;4991501;28;20139;-82
2022/07/01 05:02:25;;;;;;;17.15;6.10;;;;;;;23.04;56.24;95556.91;5008633;28;20030;-83
2022/07/01 05:04:50;;;;;;;7.70;6.15;;;;;;;23.16;55.91;95548.59;4990912;28;20022;-82
2022/07/01 05:07:27;;;;;;;13.45;6.60;;;;;;;23.29;55.90;95550.13;5010193;28;20025;-84
2022/07/01 05:09:54;;;;;;;17.98;7.20;;;;;;;23.33;56.28;95554.81;4992892;28;20026;-85
2022/07/01 05:12:19;;;;;;;14.52;6.72;;;;;;;23.40;55.61;95557.38;5009190;28;20025;-83
2022/07/01 05:14:45;;;;;;;15.07;6.90;;;;;;;23.53;55.43;95555.34;4991883;28;20033;-85
2022/07/01 05:17:10;;;;;;;9.65;6.57;;;;;;;23.62;54.64;95552.97;5007307;28;20041;-83
2022/07/01 05:22:20;;;;;;;11.48;6.63;;;;;;;23.78;53.48;95552.03;5007411;28;20040;-84
2022/07/01 05:24:45;;;;;;;8.57;5.72;;;;;;;23.91;53.35;95555.44;5008627;28;20026;-84
2022/07/01 05:27:11;;;;;;;11.10;5.07;;;;;;;24.00;50.88;95564.84;4990933;28;20033;-84
2022/07/01 05:29:36;;;;;;;8.20;5.50;;;;;;;24.01;51.46;95555.53;4991540;28;20133;-84
2022/07/01 05:32:01;;;;;;;7.78;5.63;;;;;;;24.11;51.94;95553.97;5006958;28;20030;-84
2022/07/01 05:34:27;;;;;;;9.65;5.90;;;;;;;24.21;51.91;95551.34;5007151;28;20496;-83
2022/07/01 05:36:52;;;;;;;11.90;6.10;;;;;;;24.24;52.29;95560.97;5009567;28;20018;-83
2022/07/01 05:39:18;;;;;;;12.70;5.82;;;;;;;24.35;52.09;95553.63;5008051;28;20030;-84
2022/07/01 05:41:43;;;;;;;13.68;6.32;;;;;;;24.48;52.25;95558.69;5008391;28;20033;-85
2022/07/01 05:44:09;;;;;;;10.35;6.80;;;;;;;24.57;51.23;95554.34;5006454;28;20073;-84
2022/07/01 05:46:34;;;;;;;14.95;6.75;;;;;;;24.68;52.85;95557.19;5024366;28;20485;-84
2022/07/01 05:49:00;;;;;;;8.98;5.60;;;;;;;24.67;52.03;95547.28;5007583;28;20073;-84
2022/07/01 05:51:25;;;;;;;11.23;6.50;;;;;;;24.78;50.48;95557.22;5007746;28;20036;-84
2022/07/01 05:53:51;;;;;;;13.20;6.82;;;;;;;24.77;50.76;95547.34;4991218;28;20033;-84
2022/07/01 05:56:16;;;;;;;12.82;5.95;;;;;;;24.79;50.45;95556.16;5022882;28;20441;-84
2022/07/01 05:58:42;;;;;;;22.40;6.00;;;;;;;24.86;50.56;95555.09;5007639;28;20504;-84
2022/07/01 06:01:07;;;;;;;10.48;5.85;;;;;;;24.91;50.17;95560.59;5006259;28;20030;-84
2022/07/01 06:03:33;;;;;;;9.57;6.30;;;;;;;25.00;50.10;95548.06;5007718;28;20026;-84
2022/07/01 06:05:58;;;;;;;11.38;5.95;;;;;;;25.03;50.06;95558.50;5022411;28;20026;-85
2022/07/01 06:08:24;;;;;;;9.65;5.38;;;;;;;25.11;49.96;95559.91;5007296;28;20104;-85
2022/07/01 06:10:49;;;;;;;17.33;5.35;;;;;;;25.19;49.06;95561.31;5007666;28;20030;-84
2022/07/01 06:13:15;;;;;;;10.15;5.45;;;;;;;25.24;51.28;95565.97;4990367;28;20481;-84
2022/07/01 06:15:40;;;;;;;9.20;5.15;;;;;;;25.28;49.67;95561.59;5006839;28;20491;-85
2022/07/01 06:18:05;;;;;;;17.10;5.72;;;;;;;25.09;49.31;95562.06;5007337;28;20053;-84
2022/07/01 06:20:31;;;;;;;16.95;5.90;;;;;;;25.26;50.01;95555.56;5007264;28;20018;-84
2022/07/01 06:22:58;;;;;;;8.25;5.22;;;;;;;25.41;49.41;95563.03;5022043;28;20021;-85
2022/07/01 06:25:23;;;;;;;8.57;5.07;;;;;;;25.54;48.50;95562.53;5007383;28;20405;-84
2022/07/01 06:27:48;;;;;;;8.70;3.97;;;;;;;25.49;46.24;95559.75;5005718;28;20029;-85
2022/07/01 06:30:14;;;;;;;7.78;4.13;;;;;;;25.53;46.61;95560.88;5006829;28;20409;-84
2022/07/01 06:32:39;;;;;;;6.85;4.00;;;;;;;25.69;46.15;95552.72;5007617;28;20127;-84
2022/07/01 06:35:05;;;;;;;7.25;4.05;;;;;;;25.68;45.89;95556.56;5006302;28;20114;-85
2022/07/01 06:37:33;;;;;;;7.25;3.80;;;;;;;25.79;46.00;95547.22;5007271;28;20400;-83
2022/07/01 06:39:59;;;;;;;9.98;4.25;;;;;;;25.94;46.42;95553.84;5007015;28;20030;-85
2022/07/01 06:42:25;;;;;;;7.93;4.80;;;;;;;25.96;46.56;95545.31;5008670;28;20034;-89
2022/07/01 06:44:50;;;;;;;8.20;4.30;;;;;;;25.91;46.41;95548.88;4988410;28;20408;-84
2022/07/01 06:47:16;;;;;;;7.35;4.25;;;;;;;25.96;46.19;95550.81;5006717;28;20127;-85
2022/07/01 06:49:41;;;;;;;8.80;4.20;;;;;;;26.08;48.81;95547.81;4989603;28;20033;-84
2022/07/01 06:52:07;;;;;;;10.18;4.38;;;;;;;26.20;47.35;95555.81;5006166;28;20143;-85
2022/07/01 06:54:32;;;;;;;10.25;4.43;;;;;;;26.29;46.60;95557.69;5006349;28;20065;-84
2022/07/01 06:56:58;;;;;;;7.20;4.40;;;;;;;26.31;47.12;95545.63;5005334;28;20084;-84
2022/07/01 06:59:23;;;;;;;8.80;4.63;;;;;;;26.33;45.64;95549.78;4990464;28;20484;-84
2022/07/01 07:01:49;;;;;;;6.85;3.97;;;;;;;26.39;44.92;95553.34;4988639;28;20033;-84
2022/07/01 07:04:15;;;;;;;9.88;4.43;;;;;;;26.26;44.79;95562.94;5006608;28;20447;-84
2022/07/01 07:06:40;;;;;;;7.97;4.63;;;;;;;26.27;45.08;95556.34;4989073;28;20024;-85
2022/07/01 07:09:06;;;;;;;7.45;4.25;;;;;;;26.43;47.52;95557.19;5022336;28;20026;-84
2022/07/01 07:11:31;;;;;;;9.68;4.60;;;;;;;26.41;45.78;95562.13;5005784;28;20025;-85
2022/07/01 07:13:57;;;;;;;10.77;4.50;;;;;;;26.46;47.03;95558.56;5006756;28;20034;-83
2022/07/01 07:16:23;;;;;;;12.52;4.30;;;;;;;26.49;45.99;95558.84;4990037;28;20037;-84
2022/07/01 07:18:49;;;;;;;8.38;3.70;;;;;;;26.50;42.87;95560.47;5005000;28;20030;-87
2022/07/01 07:21:14;;;;;;;5.47;3.17;;;;;;;26.39;44.38;95561.59;5023227;28;20030;-84
2022/07/01 07:23:41;;;;;;;10.75;3.55;;;;;;;26.42;43.49;95564.59;5004562;28;20022;-84
2022/07/01 07:26:07;;;;;;;7.38;3.80;;;;;;;26.48;43.61;95562.69;4974087;28;20818;-84
2022/07/01 07:28:32;;;;;;;10.63;3.95;;;;;;;26.46;44.46;95567.63;5005139;28;20021;-84
2022/07/01 07:30:57;;;;;;;6.78;3.67;;;;;;;26.42;42.52;95556.34;4972861;28;20026;-84
2022/07/01 07:33:23;;;;;;;6.88;3.80;;;;;;;26.38;43.79;95557.19;5005576;28;20042;-87
2022/07/01 07:35:48;;;;;;;9.10;3.60;;;;;;;26.39;43.40;95551.41;5005146;28;20037;-84
2022/07/01 07:38:14;;;;;;;6.18;3.58;;;;;;;26.50;44.19;95560.47;4973578;28;20040;-84
2022/07/01 07:40:40;;;;;;;7.78;3.50;;;;;;;26.63;44.63;95547.28;5004822;28;20497;-85
2022/07/01 07:43:07;;;;;;;9.20;3.65;;;;;;;26.71;43.02;95543.97;5007229;28;20435;-85
2022/07/01 07:45:32;;;;;;;6.72;3.30;;;;;;;26.79;44.46;95540.63;5004567;28;20083;-84
2022/07/01 07:47:58;;;;;;;6.07;3.60;;;;;;;26.61;42.78;95544.81;4989527;28;20030;-83
2022/07/01 07:50:23;;;;;;;7.68;3.40;;;;;;;26.42;42.34;95544.56;4988655;28;20081;-85
2022/07/01 07:52:49;;;;;;;7.93;3.35;;;;;;;26.54;41.16;95550.59;5006707;28;20103;-84
2022/07/01 07:55:14;;;;;;;6.82;3.50;;;;;;;26.82;40.68;95543.94;5006908;28;20440;-85
2022/07/01 07:57:40;;;;;;;9.63;3.78;;;;;;;26.82;40.64;95543.94;4987911;28;20030;-84
2022/07/01 08:00:07;;;;;;;13.95;3.60;;;;;;;26.91;41.07;95536.75;5005666;28;20030;-84
2022/07/01 08:02:32;;;;;;;5.65;3.30;;;;;;;26.86;39.72;95539.53;5004243;28;20116;-84
2022/07/01 08:04:57;;;;;;;8.60;3.53;;;;;;;27.06;41.87;95544.16;4989896;28;20021;-85
2022/07/01 08:07:23;;;;;;;8.90;3.40;;;;;;;27.30;41.29;95535.25;5003772;28;20401;-86
2022/07/01 08:09:49;;;;;;;6.13;3.22;;;;;;;27.49;40.22;95529.94;5005418;28;20034;-85
2022/07/01 08:12:15;;;;;;;7.25;3.60;;;;;;;27.58;39.70;95532.94;4972853;28;20387;-85
2022/07/01 08:14:40;;;;;;;6.88;3.60;;;;;;;27.62;40.35;95530.41;4988455;28;20036;-86
2022/07/01 08:17:05;;;;;;;9.85;3.63;;;;;;;27.52;40.20;95523.84;4973138;28;20521;-84
2022/07/01 08:19:31;;;;;;;9.27;4.25;;;;;;;27.39;40.16;95524.50;5004485;28;20079;-84
2022/07/01 08:21:56;;;;;;;5.43;3.15;;;;;;;27.53;39.96;95524.69;5022528;28;20026;-86
2022/07/01 08:24:22;;;;;;;7.95;3.60;;;;;;;27.43;40.80;95520.06;4987641;28;20030;-85
2022/07/01 08:26:47;;;;;;;8.43;3.45;;;;;;;27.64;39.59;95519.94;4973528;28;20803;-85
2022/07/01 08:29:13;;;;;;;6.40;3.45;;;;;;;27.25;40.56;95513.25;5004340;28;20096;-85
2022/07/01 08:31:38;;;;;;;8.98;3.80;;;;;;;27.10;41.12;95522.41;5004805;28;20030;-85
2022/07/01 08:34:04;;;;;;;6.03;4.40;;;;;;;27.35;41.23;95517.91;5005328;28;20041;-85
2022/07/01 08:36:29;;;;;;;7.78;4.15;;;;;;;27.42;41.02;95518.41;4971784;28;20911;-85
2022/07/01 08:38:55;;;;;;;4.05;3.63;;;;;;;27.60;40.84;95518.88;5006848;28;20487;-85
2022/07/01 08:41:20;;;;;;;8.05;4.60;;;;;;;27.41;40.93;95516.75;4971392;28;20022;-86
2022/07/01 08:43:46;;;;;;;7.15;4.40;;;;;;;27.25;42.49;95513.25;5005780;28;20030;-86
2022/07/01 08:46:12;;;;;;;7.13;4.70;;;;;;;27.75;41.07;95506.94;4987740;28;20033;-85
2022/07/01 08:48:41;;;;;;;7.40;3.65;;;;;;;27.60;40.89;95513.38;5005242;28;20026;-85
2022/07/01 08:51:06;;;;;;;8.18;3.88;;;;;;;27.60;40.77;95513.38;5004689;28;20030;-86
2022/07/01 08:53:32;;;;;;;11.50;3.88;;;;;;;27.77;40.34;95513.00;5004435;28;20105;-84
2022/07/01 08:58:41;;;;;;;5.50;3.83;;;;;;;27.84;40.12;95504.41;4990297;28;20072;-84
2022/07/01 09:01:20;;;;;;;9.30;3.80;;;;;;;28.05;42.00;95518.03;5007250;28;20033;-85
2022/07/01 09:03:46;;;;;;;5.65;4.22;;;;;;;27.61;41.50;95503.97;4987964;28;20115;-85
2022/07/01 09:06:16;;;;;;;9.02;4.32;;;;;;;27.48;42.02;95511.78;5021296;28;20033;-85
2022/07/01 09:08:42;;;;;;;8.38;4.40;;;;;;;27.47;42.08;95510.09;5008247;28;20451;-84
2022/07/01 09:11:16;;;;;;;9.25;4.10;;;;;;;27.91;43.88;95510.41;4974804;28;20049;-84
2022/07/01 09:13:42;;;;;;;9.50;4.22;;;;;;;28.24;41.46;95505.22;4992256;28;20022;-85
2022/07/01 09:16:14;;;;;;;6.63;4.45;;;;;;;28.43;43.38;95504.50;4990780;28;20030;-84
2022/07/01 09:18:40;;;;;;;10.55;4.95;;;;;;;28.41;40.41;95503.97;4992398;28;20036;-84
2022/07/01 09:21:09;;;;;;;19.48;4.40;;;;;;;28.62;41.22;95515.63;5009307;28;20026;-86
2022/07/01 09:23:35;;;;;;;7.22;4.18;;;;;;;28.74;39.92;95501.41;5007941;28;20037;-86
2022/07/01 09:26:00;;;;;;;7.35;4.03;;;;;;;28.85;39.50;95506.84;4992218;28;20048;-84
2022/07/01 09:28:26;;;;;;;10.68;4.05;;;;;;;28.78;38.90;95495.34;5007021;28;20041;-85
2022/07/01 09:30:57;;;;;;;8.57;3.83;;;;;;;28.83;39.28;95503.53;5008579;28;20072;-84
2022/07/01 09:33:27;;;;;;;8.50;3.72;;;;;;;28.84;40.18;95503.25;4991152;28;20129;-86
2022/07/01 09:35:52;;;;;;;6.00;4.10;;;;;;;28.54;38.79;95498.88;4992854;28;20191;-86
2022/07/01 09:38:20;;;;;;;7.57;3.70;;;;;;;28.59;38.51;95496.91;5008679;28;20025;-84
2022/07/01 09:40:55;;;;;;;5.32;3.78;;;;;;;28.93;39.78;95495.16;5009634;28;20040;-85
2022/07/01 09:43:24;;;;;;;6.70;4.13;;;;;;;29.06;38.30;95487.31;5009340;28;20119;-86
2022/07/01 09:45:50;;;;;;;5.82;3.97;;;;;;;29.22;38.27;95487.94;5007055;28;20026;-84
2022/07/01 09:48:15;;;;;;;6.40;3.97;;;;;;;29.15;38.40;95488.28;5009982;28;20033;-86
2022/07/01 09:50:41;;;;;;;8.18;4.10;;;;;;;29.19;36.44;95489.34;5006381;28;20034;-84
2022/07/01 09:53:06;;;;;;;4.93;3.58;;;;;;;29.26;35.97;95485.41;4975961;28;20465;-85
2022/07/01 09:55:33;;;;;;;5.47;3.50;;;;;;;29.17;37.15;95477.78;5006885;28;20520;-85
2022/07/01 09:57:58;;;;;;;11.75;4.03;;;;;;;29.27;37.32;95473.22;4992007;28;20077;-84
2022/07/01 10:00:25;;;;;;;6.15;3.63;;;;;;;29.39;35.74;95468.09;5007996;28;20029;-85
2022/07/01 10:02:50;;;;;;;5.53;3.50;;;;;;;29.48;34.41;95471.84;4990991;28;20022;-86
2022/07/01 10:05:17;;;;;;;7.82;3.40;;;;;;;29.52;33.44;95469.28;4991920;28;20477;-84
2022/07/01 10:08:05;;;;;;;5.63;3.80;;;;;;;29.54;34.41;95474.50;5006721;28;20045;-85
2022/07/01 10:11:13;;;;;;;6.53;3.53;;;;;;;29.49;35.76;95472.66;5008233;28;20038;-84
2022/07/01 10:13:41;;;;;;;8.10;3.67;;;;;;;29.43;32.89;95473.84;5007175;28;20402;-86
2022/07/01 10:16:06;;;;;;;4.97;3.50;;;;;;;29.48;34.17;95469.09;5006639;28;20591;-85
2022/07/01 10:18:32;;;;;;;8.32;4.15;;;;;;;29.51;34.17;95472.34;5007754;28;20029;-87
2022/07/01 10:20:57;;;;;;;4.38;3.83;;;;;;;29.55;32.07;95465.94;5006276;28;20041;-83
2022/07/01 10:23:43;;;;;;;7.53;4.18;;;;;;;29.57;31.90;95466.47;5008256;28;20037;-84
2022/07/01 10:26:10;;;;;;;5.25;3.50;;;;;;;29.58;33.12;95461.78;4990159;28;20038;-84
2022/07/01 10:28:48;;;;;;;5.50;3.95;;;;;;;29.64;32.05;95455.06;4991168;28;20029;-84
2022/07/01 10:31:18;;;;;;;4.70;3.55;;;;;;;29.64;31.39;95455.06;5009209;28;20034;-84
2022/07/01 10:33:49;;;;;;;5.72;3.85;;;;;;;29.69;33.40;95456.94;4990156;28;20409;-85
2022/07/01 10:36:31;;;;;;;4.72;3.70;;;;;;;29.67;30.47;95448.94;5007733;28;20492;-84
2022/07/01 10:41:40;;;;;;;4.22;3.38;;;;;;;29.74;27.57;95443.84;5008283;28;19964;-84
2022/07/01 10:44:13;;;;;;;5.15;3.72;;;;;;;29.58;28.31;95431.41;5007051;28;20049;-84
2022/07/01 10:46:49;;;;;;;4.32;3.20;;;;;;;29.70;27.55;95429.00;4973882;28;20018;-84
2022/07/01 10:49:15;;;;;;;5.97;3.30;;;;;;;29.84;28.34;95431.81;5008569;28;20034;-83
2022/07/01 10:51:54;;;;;;;5.70;3.10;;;;;;;29.94;26.95;95422.53;5005743;28;20108;-84
2022/07/01 10:57:42;;;;;;;7.78;2.90;;;;;;;29.95;25.39;95415.88;5008002;28;20059;-84
2022/07/01 11:00:07;;;;;;;5.50;3.10;;;;;;;30.02;25.07;95421.00;5006115;28;20429;-84
2022/07/01 11:02:34;;;;;;;5.95;3.40;;;;;;;30.08;24.69;95418.97;5008195;28;20048;-85
2022/07/01 11:05:05;;;;;;;5.25;3.83;;;;;;;30.08;26.06;95427.28;4989098;28;20048;-84
2022/07/01 11:07:32;;;;;;;7.63;3.77;;;;;;;30.20;26.73;95427.63;5006274;28;20029;-84
2022/07/01 11:09:58;;;;;;;8.27;3.50;;;;;;;30.30;26.84;95423.88;5006118;28;20077;-84
2022/07/01 11:12:24;;;;;;;6.38;3.80;;;;;;;30.25;27.95;95417.59;5005411;28;20715;-86
2022/07/01 11:14:50;;;;;;;5.22;3.90;;;;;;;30.44;28.11;95418.34;5023432;28;20061;-84
2022/07/01 11:17:15;;;;;;;6.18;3.90;;;;;;;30.46;27.19;95418.88;5006318;28;20119;-85
2022/07/01 11:19:47;;;;;;;5.53;3.53;;;;;;;30.54;26.64;95419.28;5006857;28;20409;-84
2022/07/01 11:22:12;;;;;;;3.88;3.30;;;;;;;30.63;27.26;95420.19;5005559;28;20025;-84
2022/07/01 11:24:38;;;;;;;3.90;3.50;;;;;;;30.68;27.71;95409.03;4990256;28;20037;-84
2022/07/01 11:27:07;;;;;;;7.57;3.78;;;;;;;30.76;28.76;95415.78;5007357;28;20026;-86
2022/07/01 11:29:33;;;;;;;5.43;3.60;;;;;;;30.79;25.93;95406.09;5005019;28;20080;-85
2022/07/01 11:31:58;;;;;;;5.88;3.53;;;;;;;30.79;25.85;95403.31;4990388;28;20026;-85
2022/07/01 11:34:23;;;;;;;6.32;3.38;;;;;;;30.79;22.74;95406.09;5005162;28;20422;-84
2022/07/01 11:39:34;;;;;;;6.32;3.50;;;;;;;30.93;25.79;95392.22;5005664;28;20064;-84
2022/07/01 11:42:04;;;;;;;5.25;3.17;;;;;;;30.98;26.32;95399.59;4989736;28;20033;-85
2022/07/01 11:44:39;;;;;;;3.83;3.30;;;;;;;31.11;23.23;95398.78;4989638;28;20077;-85
2022/07/01 11:47:10;;;;;;;5.05;3.30;;;;;;;31.18;24.52;95393.63;5004357;28;20084;-84